Aviation Digital Data Service (ADDS)

Output produced by METARs form (0058 UTC 06 July 2015)
found at http://aviationweather.gov/adds/metars/
 
KMPV 052321Z 0600/0624 VRB02KT P6SM FEW040 
     FM060700 00000KT 1/2SM FG VV001 
     FM061200 17004KT P6SM SCT040